Time;durP1;ratioP1;P1;durP2;ratioP2;P2;SDS_P1;SDS_P2;PMS_P1;PMS_P2;Temp;Humidity;BMP_temperature;BMP_pressure;BME280_temperature;BME280_humidity;BME280_pressure;Samples;Min_cycle;Max_cycle;Signal;HPM_P1;HPM_P2
2023/12/22 00:00:33;;;;;;;;;;;;;;;21.57;35.08;99936.25;5053158;28;19923;-45
2023/12/22 00:02:59;;;;;;;;;;;;;;;21.55;35.20;99941.06;5050614;28;19914;-47
2023/12/22 00:05:24;;;;;;;;;;;;;;;21.53;35.23;99943.97;5037297;28;20017;-47
2023/12/22 00:07:49;;;;;;;;;;;;;;;21.50;35.06;99933.56;5019869;28;20380;-45
2023/12/22 00:10:14;;;;;;;;;;;;;;;21.49;35.23;99944.59;5009366;28;19918;-45
2023/12/22 00:12:40;;;;;;;;;;;;;;;21.46;35.39;99956.66;5041497;28;19919;-46
2023/12/22 00:15:06;;;;;;;;;;;;;;;21.44;35.37;99954.16;5053021;28;19913;-49
2023/12/22 00:17:31;;;;;;;;;;;;;;;21.44;35.02;99950.63;5025570;28;19917;-45
2023/12/22 00:19:58;;;;;;;;;;;;;;;21.41;35.41;99970.81;5031502;28;19936;-46
2023/12/22 00:22:25;;;;;;;;;;;;;;;21.39;35.25;99986.41;5017426;28;19918;-47
2023/12/22 00:24:50;;;;;;;;;;;;;;;21.39;35.17;99988.28;5019371;28;19973;-48
2023/12/22 00:27:15;;;;;;;;;;;;;;;21.36;35.21;99976.00;5027170;28;19944;-46
2023/12/22 00:29:40;;;;;;;;;;;;;;;21.35;35.40;99984.31;5085616;28;19941;-48
2023/12/22 00:32:06;;;;;;;;;;;;;;;21.33;35.04;99995.34;5019874;28;19918;-46
2023/12/22 00:34:31;;;;;;;;;;;;;;;21.31;35.34;100000.09;5043792;28;19924;-45
2023/12/22 00:36:57;;;;;;;;;;;;;;;21.30;35.15;99997.59;5022061;28;19917;-45
2023/12/22 00:39:22;;;;;;;;;;;;;;;21.28;35.30;100003.22;5009375;28;20308;-46
2023/12/22 00:41:47;;;;;;;;;;;;;;;21.27;35.15;99984.50;5019163;28;19914;-45
2023/12/22 00:44:12;;;;;;;;;;;;;;;21.24;35.11;99985.75;5031152;28;19914;-47
2023/12/22 00:46:38;;;;;;;;;;;;;;;21.22;34.81;99996.75;5020430;28;20040;-47
2023/12/22 00:49:03;;;;;;;;;;;;;;;21.22;34.94;99995.94;5020561;28;20303;-45
2023/12/22 00:51:28;;;;;;;;;;;;;;;21.20;35.01;99995.31;5022037;28;19949;-45
2023/12/22 00:53:53;;;;;;;;;;;;;;;21.18;35.19;99992.81;5011351;28;19949;-46
2023/12/22 00:56:18;;;;;;;;;;;;;;;21.17;35.21;99984.91;5007213;28;19928;-47
2023/12/22 00:58:43;;;;;;;;;;;;;;;21.14;34.68;99994.25;5031714;28;19967;-46
2023/12/22 01:01:09;;;;;;;;;;;;;;;21.13;35.18;100000.69;5016423;28;20013;-45
2023/12/22 01:03:34;;;;;;;;;;;;;;;21.10;34.59;100005.69;5008221;28;19966;-46
2023/12/22 01:05:59;;;;;;;;;;;;;;;21.10;34.88;99998.41;5039272;28;20268;-48
2023/12/22 01:08:24;;;;;;;;;;;;;;;21.09;34.90;100006.72;5026784;28;19918;-46
2023/12/22 01:10:49;;;;;;;;;;;;;;;21.06;34.80;100007.94;5007695;28;19914;-46
2023/12/22 01:13:15;;;;;;;;;;;;;;;21.06;34.97;100004.41;5055082;28;20291;-46
2023/12/22 01:15:40;;;;;;;;;;;;;;;21.03;34.80;100008.38;5029426;28;19914;-46
2023/12/22 01:18:05;;;;;;;;;;;;;;;21.02;34.89;100005.88;5019485;28;19919;-48
2023/12/22 01:20:30;;;;;;;;;;;;;;;20.99;34.81;100001.72;5022227;28;19914;-46
2023/12/22 01:22:55;;;;;;;;;;;;;;;20.96;35.03;100008.34;5025083;28;19989;-46
2023/12/22 01:25:21;;;;;;;;;;;;;;;20.97;34.98;100017.28;5018561;28;19924;-44
2023/12/22 01:27:47;;;;;;;;;;;;;;;20.94;35.22;100007.75;5043003;28;19916;-46
2023/12/22 01:30:12;;;;;;;;;;;;;;;20.94;34.97;100018.53;5036712;28;19914;-44
2023/12/22 01:32:37;;;;;;;;;;;;;;;20.94;34.74;100020.38;5028178;28;20394;-49
2023/12/22 01:35:09;;;;;;;;;;;;;;;20.92;34.91;100017.06;5018645;28;20424;-48
2023/12/22 01:37:34;;;;;;;;;;;;;;;20.89;34.93;100026.41;5031765;28;19920;-50
2023/12/22 01:39:59;;;;;;;;;;;;;;;20.87;34.99;100039.31;5029082;28;20403;-49
2023/12/22 01:42:24;;;;;;;;;;;;;;;20.85;35.01;100024.31;5045602;28;19913;-49
2023/12/22 01:44:49;;;;;;;;;;;;;;;20.84;34.88;100028.06;5044332;28;19914;-51
2023/12/22 01:47:14;;;;;;;;;;;;;;;20.82;35.06;100025.56;5015285;28;19925;-48
2023/12/22 01:49:40;;;;;;;;;;;;;;;20.80;34.86;100029.50;5006531;28;20020;-47
2023/12/22 01:52:05;;;;;;;;;;;;;;;20.78;35.16;100043.22;5031871;28;19912;-48
2023/12/22 01:54:30;;;;;;;;;;;;;;;20.77;34.90;100038.81;5075473;28;19914;-46
2023/12/22 01:56:55;;;;;;;;;;;;;;;20.74;35.03;100020.34;5059294;28;20380;-47
2023/12/22 01:59:21;;;;;;;;;;;;;;;20.74;35.06;100027.63;5031922;28;20391;-50
2023/12/22 02:01:46;;;;;;;;;;;;;;;20.71;35.21;100040.47;5028989;28;20325;-46
2023/12/22 02:04:11;;;;;;;;;;;;;;;20.70;34.89;100092.00;5010981;28;19913;-46
2023/12/22 02:06:37;;;;;;;;;;;;;;;20.69;34.90;100161.41;5026890;28;19918;-51
2023/12/22 02:09:03;;;;;;;;;;;;;;;20.66;34.91;100064.56;5018312;28;19918;-50
2023/12/22 02:11:29;;;;;;;;;;;;;;;20.64;35.26;100074.72;5006666;28;19929;-47
2023/12/22 02:13:54;;;;;;;;;;;;;;;20.63;35.39;100075.75;5030411;28;19913;-48
2023/12/22 02:16:26;;;;;;;;;;;;;;;20.61;35.31;100077.84;5062130;28;19964;-45
2023/12/22 02:18:52;;;;;;;;;;;;;;;20.59;34.98;100082.59;5070072;28;20373;-50
2023/12/22 02:21:17;;;;;;;;;;;;;;;20.57;35.25;100078.44;5011514;28;19943;-50
2023/12/22 02:23:43;;;;;;;;;;;;;;;20.57;35.23;100064.94;5026089;28;20438;-46
2023/12/22 02:26:22;;;;;;;;;;;;;;;20.55;35.08;100075.09;5022617;28;19922;-46
2023/12/22 02:28:47;;;;;;;;;;;;;;;20.54;35.14;100068.88;5064613;28;19921;-48
2023/12/22 02:31:33;;;;;;;;;;;;;;;20.53;35.39;100074.47;5031783;28;19914;-47
2023/12/22 02:33:58;;;;;;;;;;;;;;;20.50;35.27;100067.59;5065508;28;19947;-48
2023/12/22 02:36:23;;;;;;;;;;;;;;;20.50;35.33;100070.28;5008004;28;19913;-50
2023/12/22 02:38:49;;;;;;;;;;;;;;;20.49;35.51;100073.19;5073915;28;19977;-46
2023/12/22 02:41:14;;;;;;;;;;;;;;;20.47;35.14;100081.44;5067270;28;19914;-45
2023/12/22 02:43:39;;;;;;;;;;;;;;;20.45;35.13;100070.88;5019134;28;19914;-49
2023/12/22 02:46:04;;;;;;;;;;;;;;;20.43;35.17;100059.44;5068851;28;19913;-46
2023/12/22 02:48:29;;;;;;;;;;;;;;;20.42;35.08;100056.91;5037749;28;19964;-50
2023/12/22 02:50:54;;;;;;;;;;;;;;;20.39;35.53;100051.91;5012442;28;20318;-48
2023/12/22 02:53:20;;;;;;;;;;;;;;;20.38;35.50;100040.28;5048499;28;19988;-45
2023/12/22 02:55:45;;;;;;;;;;;;;;;20.34;35.29;100048.97;5024938;28;19930;-50
2023/12/22 02:58:10;;;;;;;;;;;;;;;20.33;35.42;100044.63;5020228;28;19914;-47
2023/12/22 03:00:35;;;;;;;;;;;;;;;20.31;35.61;100066.44;5017852;28;19957;-51
2023/12/22 03:03:00;;;;;;;;;;;;;;;20.30;35.46;100059.34;5029349;28;19998;-47
2023/12/22 03:05:25;;;;;;;;;;;;;;;20.29;35.47;100059.53;5049068;28;19914;-49
2023/12/22 03:07:51;;;;;;;;;;;;;;;20.27;35.20;100061.63;5050684;28;19918;-47
2023/12/22 03:10:16;;;;;;;;;;;;;;;20.25;35.58;100063.66;5028539;28;19916;-45
2023/12/22 03:12:41;;;;;;;;;;;;;;;20.22;35.26;100064.91;5019155;28;19964;-50
2023/12/22 03:15:06;;;;;;;;;;;;;;;20.19;35.26;100044.53;5014999;28;19920;-45
2023/12/22 03:17:32;;;;;;;;;;;;;;;20.17;35.25;100038.50;5043903;28;20360;-50
2023/12/22 03:19:57;;;;;;;;;;;;;;;20.15;35.34;100040.56;5063320;28;19914;-50
2023/12/22 03:22:22;;;;;;;;;;;;;;;20.13;35.48;100053.41;5051229;28;19917;-50
2023/12/22 03:24:47;;;;;;;;;;;;;;;20.12;35.55;100053.63;5050143;28;19913;-49
2023/12/22 03:27:16;;;;;;;;;;;;;;;20.11;35.45;100062.75;5022916;28;19918;-48
2023/12/22 03:29:41;;;;;;;;;;;;;;;20.10;35.75;100050.31;5023853;28;19914;-46
2023/12/22 03:32:06;;;;;;;;;;;;;;;20.07;35.47;100059.63;5035288;28;20329;-46
2023/12/22 03:34:31;;;;;;;;;;;;;;;20.06;35.41;100051.72;5018084;28;19993;-46
2023/12/22 03:36:56;;;;;;;;;;;;;;;20.05;35.49;100050.91;5008293;28;19953;-49
2023/12/22 03:39:22;;;;;;;;;;;;;;;20.04;35.57;100061.88;5052179;28;19920;-50
2023/12/22 03:41:47;;;;;;;;;;;;;;;20.02;35.53;100045.88;5032864;28;19975;-47
2023/12/22 03:44:12;;;;;;;;;;;;;;;20.02;35.61;100056.69;5009060;28;19914;-48
2023/12/22 03:46:37;;;;;;;;;;;;;;;20.01;35.56;100057.72;5015891;28;19942;-50
2023/12/22 03:49:02;;;;;;;;;;;;;;;20.00;35.57;100058.72;5042313;28;19918;-47
2023/12/22 03:51:28;;;;;;;;;;;;;;;20.00;35.38;100071.38;5033235;28;20015;-48
2023/12/22 03:53:53;;;;;;;;;;;;;;;20.00;35.43;100066.81;5021431;28;19924;-49
2023/12/22 03:56:18;;;;;;;;;;;;;;;20.00;35.73;100065.97;5034816;28;20388;-49
2023/12/22 03:58:44;;;;;;;;;;;;;;;20.00;35.56;100063.28;5012827;28;19967;-45
2023/12/22 04:01:09;;;;;;;;;;;;;;;19.99;35.64;100065.16;5014672;28;20501;-46
2023/12/22 04:03:34;;;;;;;;;;;;;;;19.98;35.46;100063.50;5025550;28;20375;-48
2023/12/22 04:06:03;;;;;;;;;;;;;;;19.98;35.77;100063.50;5028144;28;19953;-50
2023/12/22 04:08:28;;;;;;;;;;;;;;;19.98;35.51;100071.59;5023526;28;19917;-46
2023/12/22 04:10:53;;;;;;;;;;;;;;;19.97;35.39;100086.94;5034761;28;19918;-48
2023/12/22 04:13:18;;;;;;;;;;;;;;;19.97;35.30;100083.41;5064074;28;20131;-47
2023/12/22 04:15:44;;;;;;;;;;;;;;;19.96;35.45;100090.69;5013831;28;19925;-48
2023/12/22 04:18:09;;;;;;;;;;;;;;;19.97;35.51;100099.59;5028539;28;19982;-48
2023/12/22 04:20:34;;;;;;;;;;;;;;;19.97;35.28;100092.34;5033110;28;19985;-47
2023/12/22 04:23:00;;;;;;;;;;;;;;;19.97;35.64;100086.13;5024343;28;19918;-47
2023/12/22 04:25:25;;;;;;;;;;;;;;;19.96;35.31;100079.88;5028519;28;20281;-46
2023/12/22 04:27:51;;;;;;;;;;;;;;;19.98;35.33;100085.06;5024549;28;19917;-45
2023/12/22 04:30:16;;;;;;;;;;;;;;;19.97;35.26;100088.81;5021969;28;19914;-46
2023/12/22 04:32:41;;;;;;;;;;;;;;;19.98;35.35;100080.50;5042881;28;19912;-48
2023/12/22 04:35:07;;;;;;;;;;;;;;;19.97;35.35;100091.50;5034014;28;19973;-46
2023/12/22 04:37:32;;;;;;;;;;;;;;;19.98;35.56;100094.00;5065575;28;19917;-46
2023/12/22 04:39:58;;;;;;;;;;;;;;;19.99;35.38;100086.75;5019712;28;19921;-46
2023/12/22 04:42:25;;;;;;;;;;;;;;;20.00;35.53;100091.09;5035285;28;19917;-47
2023/12/22 04:44:50;;;;;;;;;;;;;;;20.00;35.34;100098.38;5042612;28;19916;-46
2023/12/22 04:47:15;;;;;;;;;;;;;;;20.01;35.13;100097.31;5045992;28;19982;-45
2023/12/22 04:49:40;;;;;;;;;;;;;;;20.04;35.07;100094.25;5066140;28;19921;-45
2023/12/22 04:52:06;;;;;;;;;;;;;;;20.03;35.46;100103.38;5083701;28;19922;-45
2023/12/22 04:54:31;;;;;;;;;;;;;;;20.03;35.20;100104.22;5021345;28;19983;-46
2023/12/22 04:56:56;;;;;;;;;;;;;;;20.04;35.34;100100.47;5020847;28;20004;-44
2023/12/22 04:59:21;;;;;;;;;;;;;;;20.06;35.26;100105.69;5012408;28;19914;-47
2023/12/22 05:01:46;;;;;;;;;;;;;;;20.06;35.02;100095.72;5016897;28;19916;-47
2023/12/22 05:04:12;;;;;;;;;;;;;;;20.07;35.19;100094.69;5035207;28;19956;-46
2023/12/22 05:06:37;;;;;;;;;;;;;;;20.08;35.50;100090.97;5026559;28;20419;-47
2023/12/22 05:09:02;;;;;;;;;;;;;;;20.10;35.26;100106.97;5015830;28;20277;-51
2023/12/22 05:11:27;;;;;;;;;;;;;;;20.12;35.32;100118.38;5014872;28;20337;-47
2023/12/22 05:13:53;;;;;;;;;;;;;;;20.13;34.95;100111.97;5038507;28;19914;-48
2023/12/22 05:16:18;;;;;;;;;;;;;;;20.14;35.05;100110.94;5034336;28;19916;-47
2023/12/22 05:18:43;;;;;;;;;;;;;;;20.15;35.06;100099.13;5017126;28;19922;-49
2023/12/22 05:21:11;;;;;;;;;;;;;;;20.18;35.24;100113.06;5040393;28;19951;-44
2023/12/22 05:23:36;;;;;;;;;;;;;;;20.19;35.19;100120.13;5015414;28;19939;-46
2023/12/22 05:26:01;;;;;;;;;;;;;;;20.22;35.14;100113.50;5017184;28;19918;-45
2023/12/22 05:28:27;;;;;;;;;;;;;;;20.22;34.89;100127.00;5010307;28;19925;-47
2023/12/22 05:30:52;;;;;;;;;;;;;;;20.23;34.97;100113.28;5033956;28;19926;-49
2023/12/22 05:33:17;;;;;;;;;;;;;;;20.25;35.02;100105.00;5011691;28;20096;-50
2023/12/22 05:35:42;;;;;;;;;;;;;;;20.27;34.99;100115.63;5027475;28;19928;-48
2023/12/22 05:38:07;;;;;;;;;;;;;;;20.29;34.78;100119.75;5023848;28;20096;-47
2023/12/22 05:40:33;;;;;;;;;;;;;;;20.30;35.04;100123.28;5006318;28;19924;-47
2023/12/22 05:42:58;;;;;;;;;;;;;;;20.32;35.03;100116.69;5095166;28;19920;-48
2023/12/22 05:45:24;;;;;;;;;;;;;;;20.34;35.04;100108.38;5021338;28;20242;-47
2023/12/22 05:47:49;;;;;;;;;;;;;;;20.36;34.94;100098.22;5033490;28;19916;-49
2023/12/22 05:50:15;;;;;;;;;;;;;;;20.38;35.02;100104.25;5027628;28;19913;-46
2023/12/22 05:52:40;;;;;;;;;;;;;;;20.40;35.14;100104.91;5020084;28;19948;-49
2023/12/22 05:55:05;;;;;;;;;;;;;;;20.43;34.99;100110.75;5010758;28;19946;-49
2023/12/22 05:57:30;;;;;;;;;;;;;;;20.45;35.06;100110.53;5014790;28;19939;-45
2023/12/22 05:59:55;;;;;;;;;;;;;;;20.49;34.92;100108.31;5030411;28;20012;-47
2023/12/22 06:02:21;;;;;;;;;;;;;;;20.51;35.08;100100.81;5018235;28;19917;-47
2023/12/22 06:04:46;;;;;;;;;;;;;;;20.01;34.83;100010.97;5010534;28;20417;-47
2023/12/22 06:07:11;;;;;;;;;;;;;;;20.57;35.18;100089.25;5034207;28;19948;-46
2023/12/22 06:09:36;;;;;;;;;;;;;;;20.60;35.04;100097.78;5018027;28;19933;-47
2023/12/22 06:12:02;;;;;;;;;;;;;;;20.62;35.24;100105.69;5017354;28;19920;-51
2023/12/22 06:14:27;;;;;;;;;;;;;;;20.63;34.90;100097.38;5045249;28;19920;-50
2023/12/22 06:16:53;;;;;;;;;;;;;;;20.67;35.15;100106.75;5030435;28;19920;-47
2023/12/22 06:19:18;;;;;;;;;;;;;;;20.69;35.31;100095.75;5014044;28;19922;-47
2023/12/22 06:21:43;;;;;;;;;;;;;;;20.72;35.13;100087.22;5029510;28;20307;-47
2023/12/22 06:24:09;;;;;;;;;;;;;;;20.75;35.29;100100.34;5028020;28;19912;-47
2023/12/22 06:26:34;;;;;;;;;;;;;;;20.78;35.37;100093.72;5061764;28;19912;-46
2023/12/22 06:29:00;;;;;;;;;;;;;;;20.80;35.46;100105.13;5017365;28;19930;-45
2023/12/22 06:31:25;;;;;;;;;;;;;;;20.82;35.47;100112.03;5023164;28;20306;-48
2023/12/22 06:33:51;;;;;;;;;;;;;;;20.84;35.43;100109.94;5006917;28;19956;-45
2023/12/22 06:36:23;;;;;;;;;;;;;;;20.86;35.25;100110.59;5015427;28;19914;-47
2023/12/22 06:38:48;;;;;;;;;;;;;;;20.88;35.23;100116.63;5049265;28;19917;-46
2023/12/22 06:41:26;;;;;;;;;;;;;;;20.89;35.16;100112.88;5057450;28;20048;-47
2023/12/22 06:43:52;;;;;;;;;;;;;;;20.92;35.17;100111.66;5048100;28;20432;-46
2023/12/22 06:46:17;;;;;;;;;;;;;;;20.93;35.12;100118.72;5032246;28;20009;-46
2023/12/22 06:48:43;;;;;;;;;;;;;;;20.93;35.02;100130.34;5017563;28;20049;-48
2023/12/22 06:51:16;;;;;;;;;;;;;;;20.93;35.18;100111.44;5016326;28;19913;-45
2023/12/22 06:53:41;;;;;;;;;;;;;;;20.96;35.45;100105.63;5025546;28;19928;-48
2023/12/22 06:56:14;;;;;;;;;;;;;;;20.99;35.50;100125.19;5022822;28;19984;-45
2023/12/22 06:58:39;;;;;;;;;;;;;;;21.01;35.26;100118.53;5015852;28;19916;-45
2023/12/22 07:01:05;;;;;;;;;;;;;;;21.04;35.60;100114.63;5023270;28;19987;-47
2023/12/22 07:03:30;;;;;;;;;;;;;;;21.07;35.34;100097.97;5007986;28;19913;-45
2023/12/22 07:05:55;;;;;;;;;;;;;;;21.08;35.56;100099.66;5008652;28;19928;-44
2023/12/22 07:08:20;;;;;;;;;;;;;;;21.11;35.29;100104.63;5019204;28;19917;-46
2023/12/22 07:10:45;;;;;;;;;;;;;;;21.13;35.32;100103.41;5014697;28;19976;-45
2023/12/22 07:13:11;;;;;;;;;;;;;;;21.15;35.34;100109.47;5013757;28;19913;-45
2023/12/22 07:15:36;;;;;;;;;;;;;;;21.17;35.64;100122.78;5029212;28;19912;-45
2023/12/22 07:18:01;;;;;;;;;;;;;;;21.20;35.59;100119.66;5069073;28;19925;-45
2023/12/22 07:20:26;;;;;;;;;;;;;;;21.22;35.27;100129.22;5004232;28;19940;-44
2023/12/22 07:22:53;;;;;;;;;;;;;;;21.23;35.53;100135.47;5012491;28;20362;-46
2023/12/22 07:25:19;;;;;;;;;;;;;;;21.24;35.61;100153.38;5022061;28;19933;-46
2023/12/22 07:27:45;;;;;;;;;;;;;;;21.26;35.44;100140.47;5009172;28;19956;-45
2023/12/22 07:30:11;;;;;;;;;;;;;;;21.27;35.53;100134.03;5010276;28;19921;-51
2023/12/22 07:32:36;;;;;;;;;;;;;;;21.29;35.39;100115.75;5040952;28;19954;-47
2023/12/22 07:35:02;;;;;;;;;;;;;;;21.29;35.71;100114.91;5085640;28;19918;-46
2023/12/22 07:37:27;;;;;;;;;;;;;;;21.31;35.34;100116.34;5009102;28;19961;-47
2023/12/22 07:39:52;;;;;;;;;;;;;;;21.32;35.32;100103.69;5038598;28;19916;-50
2023/12/22 07:42:17;;;;;;;;;;;;;;;21.32;35.36;100106.41;5017214;28;19921;-47
2023/12/22 07:44:42;;;;;;;;;;;;;;;21.36;35.40;100107.66;5028483;28;20486;-47
2023/12/22 07:47:09;;;;;;;;;;;;;;;21.36;35.21;100111.19;5034398;28;20413;-45
2023/12/22 07:49:34;;;;;;;;;;;;;;;21.37;35.31;100129.09;5027987;28;19924;-47
2023/12/22 07:51:59;;;;;;;;;;;;;;;21.40;35.21;100125.16;5023097;28;19969;-45
2023/12/22 07:54:25;;;;;;;;;;;;;;;21.41;35.25;100138.47;5030821;28;19949;-46
2023/12/22 07:56:51;;;;;;;;;;;;;;;21.45;35.38;100147.00;5024998;28;19960;-47
2023/12/22 07:59:16;;;;;;;;;;;;;;;21.45;35.34;100147.00;5012671;28;19963;-47
2023/12/22 08:01:41;;;;;;;;;;;;;;;21.50;35.60;100152.66;5021527;28;19916;-45
2023/12/22 08:04:08;;;;;;;;;;;;;;;21.37;35.78;100120.16;5016609;28;19925;-47
2023/12/22 08:06:33;;;;;;;;;;;;;;;21.58;35.76;100149.75;5016826;28;19912;-48
2023/12/22 08:08:58;;;;;;;;;;;;;;;21.63;35.48;100154.56;5070190;28;19949;-46
2023/12/22 08:11:26;;;;;;;;;;;;;;;21.68;35.45;100136.66;5032452;28;19952;-44
2023/12/22 08:13:51;;;;;;;;;;;;;;;21.83;35.21;100130.22;5013663;28;19953;-46
2023/12/22 08:16:17;;;;;;;;;;;;;;;21.93;35.11;100127.94;5015204;28;19914;-44
2023/12/22 08:18:42;;;;;;;;;;;;;;;21.96;35.11;100124.81;5020848;28;20614;-44
2023/12/22 08:21:07;;;;;;;;;;;;;;;22.00;34.97;100128.75;5015823;28;19914;-46
2023/12/22 08:23:32;;;;;;;;;;;;;;;22.00;34.86;100126.06;5020032;28;19917;-44
2023/12/22 08:25:58;;;;;;;;;;;;;;;22.01;34.98;100110.69;5086863;28;19913;-44
2023/12/22 08:28:23;;;;;;;;;;;;;;;21.99;35.00;100105.44;5023325;28;19930;-44
2023/12/22 08:30:48;;;;;;;;;;;;;;;22.00;34.98;100095.44;5020424;28;19928;-44
2023/12/22 08:33:13;;;;;;;;;;;;;;;22.00;35.34;100093.56;5026835;28;19914;-46
2023/12/22 08:35:39;;;;;;;;;;;;;;;22.00;35.36;100088.16;5026329;28;20399;-49
2023/12/22 08:38:04;;;;;;;;;;;;;;;21.99;35.42;100091.91;5044975;28;19964;-44
2023/12/22 08:40:29;;;;;;;;;;;;;;;22.01;35.76;100102.56;5031256;28;19936;-49
2023/12/22 08:42:54;;;;;;;;;;;;;;;22.00;35.81;100096.28;5017763;28;19928;-50
2023/12/22 08:45:20;;;;;;;;;;;;;;;22.02;35.86;100102.34;5016912;28;19922;-50
2023/12/22 08:47:45;;;;;;;;;;;;;;;22.02;35.85;100093.38;5024122;28;19967;-47
2023/12/22 08:50:12;;;;;;;;;;;;;;;22.01;36.03;100089.84;5027913;28;19920;-49
2023/12/22 08:52:38;;;;;;;;;;;;;;;22.01;35.70;100081.72;5007724;28;19952;-47
2023/12/22 08:55:05;;;;;;;;;;;;;;;22.00;36.22;100077.34;5024147;28;19922;-50
2023/12/22 08:57:30;;;;;;;;;;;;;;;22.00;36.02;100081.91;5015675;28;19965;-48
2023/12/22 08:59:55;;;;;;;;;;;;;;;22.01;36.15;100083.59;5008111;28;20292;-47
2023/12/22 09:02:20;;;;;;;;;;;;;;;22.01;36.32;100076.31;5021177;28;19914;-47
2023/12/22 09:04:46;;;;;;;;;;;;;;;22.02;36.05;100091.50;5029592;28;19924;-49
2023/12/22 09:07:11;;;;;;;;;;;;;;;22.02;36.19;100086.09;5014432;28;20013;-45
2023/12/22 09:09:36;;;;;;;;;;;;;;;22.03;36.37;100076.09;5017487;28;20018;-48
2023/12/22 09:12:01;;;;;;;;;;;;;;;22.04;36.37;100065.06;5041613;28;19914;-45
2023/12/22 09:14:26;;;;;;;;;;;;;;;22.07;36.40;100072.75;5017449;28;19918;-47
2023/12/22 09:16:53;;;;;;;;;;;;;;;22.10;36.68;100076.94;5008119;28;20008;-49
2023/12/22 09:19:18;;;;;;;;;;;;;;;22.12;36.39;100082.97;5032765;28;19920;-47
2023/12/22 09:21:44;;;;;;;;;;;;;;;22.14;36.21;100073.63;5027504;28;19914;-51
2023/12/22 09:24:09;;;;;;;;;;;;;;;22.17;36.17;100062.38;5026392;28;19940;-48
2023/12/22 09:26:34;;;;;;;;;;;;;;;22.17;36.54;100062.38;5061746;28;19986;-46
2023/12/22 09:28:59;;;;;;;;;;;;;;;22.18;36.45;100071.34;5044623;28;20369;-49
2023/12/22 09:31:25;;;;;;;;;;;;;;;22.18;36.46;100080.28;5064086;28;19914;-46
2023/12/22 09:33:50;;;;;;;;;;;;;;;22.20;36.28;100074.66;5036864;28;19917;-49
2023/12/22 09:36:15;;;;;;;;;;;;;;;22.21;36.37;100063.59;5026582;28;20383;-49
2023/12/22 09:38:41;;;;;;;;;;;;;;;22.20;36.24;100053.81;5015975;28;19952;-47
2023/12/22 09:41:06;;;;;;;;;;;;;;;22.20;35.99;100050.28;5026044;28;19917;-47
2023/12/22 09:43:32;;;;;;;;;;;;;;;22.19;36.05;100046.75;5048885;28;19918;-49
2023/12/22 09:45:57;;;;;;;;;;;;;;;22.20;36.17;100055.69;5063719;28;19925;-48
2023/12/22 09:48:27;;;;;;;;;;;;;;;22.19;36.16;100054.88;5058875;28;19925;-48
2023/12/22 09:50:52;;;;;;;;;;;;;;;22.20;36.29;100055.69;5065889;28;19951;-47
2023/12/22 09:53:17;;;;;;;;;;;;;;;22.20;36.17;100051.13;5025088;28;19944;-47
2023/12/22 09:55:43;;;;;;;;;;;;;;;22.20;36.30;100063.81;5064246;28;19921;-46
2023/12/22 09:58:08;;;;;;;;;;;;;;;22.19;36.07;100071.13;5063728;28;20280;-47
2023/12/22 10:00:34;;;;;;;;;;;;;;;22.23;35.96;100070.69;5078532;28;19914;-47
2023/12/22 10:02:59;;;;;;;;;;;;;;;22.25;35.72;100068.59;5075925;28;19917;-49
2023/12/22 10:05:24;;;;;;;;;;;;;;;22.26;35.80;100065.69;5036674;28;19975;-50
2023/12/22 10:07:50;;;;;;;;;;;;;;;22.25;35.90;100072.13;5065636;28;19933;-50
2023/12/22 10:10:15;;;;;;;;;;;;;;;22.24;35.81;100072.38;5067227;28;19936;-46
2023/12/22 10:12:40;;;;;;;;;;;;;;;22.26;35.64;100052.16;5062465;28;20017;-46
2023/12/22 10:15:06;;;;;;;;;;;;;;;22.27;35.81;100061.13;5067256;28;20246;-47
2023/12/22 10:17:31;;;;;;;;;;;;;;;22.26;35.90;100051.31;5067027;28;19923;-47
2023/12/22 10:19:57;;;;;;;;;;;;;;;22.27;35.73;100058.41;5011248;28;19918;-48
2023/12/22 10:22:23;;;;;;;;;;;;;;;22.27;35.84;100050.28;5018249;28;19919;-48
2023/12/22 10:24:52;;;;;;;;;;;;;;;22.29;35.77;100053.59;5014482;28;20132;-49
2023/12/22 10:27:22;;;;;;;;;;;;;;;22.30;35.63;100063.38;5010994;28;19930;-46
2023/12/22 10:29:47;;;;;;;;;;;;;;;22.31;35.58;100062.34;5029414;28;19943;-47
2023/12/22 10:32:13;;;;;;;;;;;;;;;22.32;35.60;100070.25;5021069;28;19922;-49
2023/12/22 10:34:39;;;;;;;;;;;;;;;22.35;35.44;100071.72;5028271;28;19914;-46
2023/12/22 10:37:04;;;;;;;;;;;;;;;22.37;35.43;100077.75;5030383;28;19918;-46
2023/12/22 10:39:30;;;;;;;;;;;;;;;22.38;35.48;100074.81;5068244;28;20016;-51
2023/12/22 10:41:55;;;;;;;;;;;;;;;22.39;35.62;100071.09;5017565;28;19913;-46
2023/12/22 10:44:20;;;;;;;;;;;;;;;22.41;35.47;100068.97;5074201;28;19918;-51
2023/12/22 10:46:46;;;;;;;;;;;;;;;22.42;35.61;100070.63;5065542;28;19913;-46
2023/12/22 10:49:11;;;;;;;;;;;;;;;22.44;35.41;100071.28;5006069;28;19917;-48
2023/12/22 10:51:37;;;;;;;;;;;;;;;22.46;35.42;100063.75;5070126;28;19920;-48
2023/12/22 10:54:03;;;;;;;;;;;;;;;22.49;35.67;100072.53;5027049;28;19913;-46
2023/12/22 10:56:29;;;;;;;;;;;;;;;22.50;35.17;100061.47;5071992;28;19925;-49
2023/12/22 10:58:54;;;;;;;;;;;;;;;22.51;35.48;100067.72;5027073;28;19925;-48
2023/12/22 11:01:21;;;;;;;;;;;;;;;22.54;35.37;100081.66;5008233;28;19918;-49
2023/12/22 11:03:46;;;;;;;;;;;;;;;22.57;35.42;100081.25;5023948;28;19913;-48
2023/12/22 11:06:12;;;;;;;;;;;;;;;22.59;34.99;100095.41;5072538;28;19955;-48
2023/12/22 11:08:38;;;;;;;;;;;;;;;22.64;35.22;100079.34;5027430;28;19924;-50
2023/12/22 11:11:04;;;;;;;;;;;;;;;22.69;34.94;100081.44;5067168;28;19950;-45
2023/12/22 11:13:29;;;;;;;;;;;;;;;22.72;34.89;100099.94;5024023;28;19922;-45
2023/12/22 11:15:54;;;;;;;;;;;;;;;22.76;34.95;100092.22;5083531;28;19984;-49
2023/12/22 11:18:19;;;;;;;;;;;;;;;22.78;34.82;100099.09;5017628;28;19970;-49
2023/12/22 11:20:44;;;;;;;;;;;;;;;22.80;34.92;100078.03;5073995;28;19977;-49
2023/12/22 11:23:10;;;;;;;;;;;;;;;22.80;34.82;100088.03;5027578;28;19914;-46
2023/12/22 11:25:35;;;;;;;;;;;;;;;22.84;34.71;100086.56;5039324;28;19914;-46
2023/12/22 11:28:00;;;;;;;;;;;;;;;22.87;34.93;100075.31;5046113;28;20326;-48
2023/12/22 11:30:25;;;;;;;;;;;;;;;22.89;34.85;100070.50;5041469;28;19918;-46
2023/12/22 11:32:50;;;;;;;;;;;;;;;22.91;34.96;100060.31;5010958;28;19927;-45
2023/12/22 11:35:17;;;;;;;;;;;;;;;22.93;34.76;100067.16;5072317;28;19944;-49
2023/12/22 11:37:42;;;;;;;;;;;;;;;22.97;34.73;100061.31;5077097;28;19918;-45
2023/12/22 11:40:07;;;;;;;;;;;;;;;22.98;34.65;100047.56;5068916;28;19925;-45
2023/12/22 11:42:36;;;;;;;;;;;;;;;23.01;34.99;100051.69;5017411;28;19909;-44
2023/12/22 11:45:01;;;;;;;;;;;;;;;23.03;35.07;100060.47;5038045;28;19914;-46
2023/12/22 11:47:27;;;;;;;;;;;;;;;23.02;34.87;100067.75;5021246;28;19925;-45
2023/12/22 11:49:52;;;;;;;;;;;;;;;23.03;35.17;100055.88;5065148;28;19922;-47
2023/12/22 11:52:18;;;;;;;;;;;;;;;23.08;35.00;100069.59;5074572;28;19918;-49
2023/12/22 11:54:47;;;;;;;;;;;;;;;23.11;34.92;100044.78;5013197;28;20005;-45
2023/12/22 11:57:28;;;;;;;;;;;;;;;23.14;34.93;100060.59;5004085;28;19929;-47
2023/12/22 11:59:56;;;;;;;;;;;;;;;23.14;35.30;100044.31;5033290;28;19916;-46
2023/12/22 12:02:22;;;;;;;;;;;;;;;23.16;34.99;100041.41;5001785;28;19917;-45
2023/12/22 12:04:47;;;;;;;;;;;;;;;23.17;35.13;100019.50;5006125;28;19914;-45
2023/12/22 12:07:31;;;;;;;;;;;;;;;23.22;35.18;100004.44;5009192;28;19914;-46
2023/12/22 12:09:57;;;;;;;;;;;;;;;23.25;35.03;100001.31;5034117;28;19912;-46
2023/12/22 12:12:24;;;;;;;;;;;;;;;23.27;35.12;99991.88;5019981;28;19912;-45
2023/12/22 12:14:49;;;;;;;;;;;;;;;23.29;34.89;99992.50;5026204;28;19922;-45
2023/12/22 12:17:15;;;;;;;;;;;;;;;23.32;35.14;99977.66;5065931;28;19944;-54
2023/12/22 12:19:44;;;;;;;;;;;;;;;23.35;34.87;99988.06;5012463;28;19917;-52
2023/12/22 12:22:11;;;;;;;;;;;;;;;23.40;35.27;99970.06;5069107;28;19975;-48
2023/12/22 12:24:37;;;;;;;;;;;;;;;23.47;35.20;99969.19;5016794;28;19916;-51
2023/12/22 12:27:02;;;;;;;;;;;;;;;23.55;34.94;99966.22;5014938;28;19915;-53
2023/12/22 12:29:28;;;;;;;;;;;;;;;23.60;34.87;99966.38;5011718;28;20020;-51